NY12 weather

Auburn Community Hospital Heliport
Auburn, New York, United States

Public forecast

Using degrees Fahrenheit for public forecast. Weather courtesy of forecast.io.

METAR (pilot weather report)

Closest report is Syracuse Hancock International Airport, 22.6 nm (41.8 km) ENE. Retrieved 2019/05/22 14:54 UTC (6 minutes ago):

KSYR 221454Z 00000KT 10SM FEW180 BKN260 16/03 A3030 RMK AO2 SLP257 T01610028 51007

TAF (pilot weather forecast)

Closest forecast is Syracuse Hancock International Airport, 22.6 nm (41.8 km) ENE. Retrieved 2019/05/22 12:30 UTC (3 hours ago):

TAF KSYR 221127Z 2212/2312 00000KT P6SM SCT200 FM222300 12005KT P6SM BKN100 FM230500 15007KT P6SM OVC045 TEMPO 2305/2308 -SHRA